createdAt,value
2022-10-09T00:07:57.273Z,102285.97
2022-10-09T00:18:19.101Z,102297.97
2022-10-09T00:28:40.715Z,102304.44
2022-10-09T00:39:02.286Z,102296.00
2022-10-09T00:49:34.359Z,102300.31
2022-10-09T00:59:55.872Z,102307.31
2022-10-09T01:10:49.511Z,102305.66
2022-10-09T01:21:25.524Z,102299.94
2022-10-09T01:31:49.903Z,102302.91
2022-10-09T01:42:14.017Z,102301.56
2022-10-09T01:52:52.684Z,102296.69
2022-10-09T02:03:16.067Z,102297.16
2022-10-09T02:13:38.432Z,102295.22
2022-10-09T02:24:02.872Z,102294.41
2022-10-09T02:34:25.479Z,102294.16
2022-10-09T02:44:46.930Z,102291.47
2022-10-09T02:55:08.594Z,102286.25
2022-10-09T03:05:30.044Z,102289.38
2022-10-09T03:15:51.499Z,102299.66
2022-10-09T03:26:16.630Z,102296.25
2022-10-09T03:36:38.102Z,102300.66
2022-10-09T03:46:59.596Z,102307.78
2022-10-09T03:57:21.475Z,102309.19
2022-10-09T04:07:43.079Z,102322.06
2022-10-09T04:18:05.290Z,102331.09
2022-10-09T04:28:28.810Z,102331.19
2022-10-09T04:38:50.336Z,102319.97
2022-10-09T04:49:13.607Z,102322.50
2022-10-09T04:59:35.076Z,102318.34
2022-10-09T05:09:57.356Z,102323.03
2022-10-09T05:20:18.856Z,102315.50
2022-10-09T05:30:41.707Z,102316.44
2022-10-09T05:41:07.702Z,102318.09
2022-10-09T05:51:31.328Z,102323.50
2022-10-09T06:01:54.537Z,102326.91
2022-10-09T06:12:16.115Z,102326.91
2022-10-09T06:22:37.595Z,102329.84
2022-10-09T06:32:59.058Z,102330.03
2022-10-09T06:43:20.531Z,102342.38
2022-10-09T06:53:53.035Z,102343.38
2022-10-09T07:04:15.137Z,102346.84
2022-10-09T07:14:36.509Z,102357.94
2022-10-09T07:24:57.965Z,102370.75
2022-10-09T07:35:19.415Z,102370.16
2022-10-09T07:45:40.898Z,102376.13
2022-10-09T07:56:02.443Z,102369.94
2022-10-09T08:06:24.681Z,102375.66
2022-10-09T08:16:46.405Z,102371.13
2022-10-09T08:27:07.892Z,102371.59
2022-10-09T08:37:29.383Z,102374.47
2022-10-09T08:47:59.607Z,102380.00
2022-10-09T08:58:21.403Z,102376.88
2022-10-09T09:08:55.628Z,102358.88
2022-10-09T09:19:35.842Z,102355.47
2022-10-09T09:30:04.281Z,102350.69
2022-10-09T09:40:36.609Z,102342.75
2022-10-09T09:51:16.058Z,102336.91
2022-10-09T10:01:40.508Z,102326.72
2022-10-09T10:12:03.929Z,102317.78
2022-10-09T10:22:28.044Z,102315.31
2022-10-09T10:32:58.738Z,102306.47
2022-10-09T10:43:33.638Z,102296.38
2022-10-09T10:54:32.207Z,102293.34
2022-10-09T11:05:11.972Z,102276.56
2022-10-09T11:16:11.058Z,102273.72
2022-10-09T11:26:46.191Z,102260.00
2022-10-09T11:37:17.130Z,102245.22
2022-10-09T11:47:43.651Z,102229.47
2022-10-09T11:58:18.705Z,102218.44
2022-10-09T12:08:54.012Z,102201.44
2022-10-09T12:19:26.979Z,102177.53
2022-10-09T12:29:58.736Z,102166.78
2022-10-09T12:40:28.319Z,102158.13
2022-10-09T12:50:50.360Z,102130.66
2022-10-09T13:01:14.359Z,102122.97
2022-10-09T13:11:43.454Z,102102.00
2022-10-09T13:22:17.298Z,102092.31
2022-10-09T13:32:38.797Z,102066.22
2022-10-09T13:43:02.710Z,102059.03
2022-10-09T13:53:24.252Z,102039.19
2022-10-09T14:03:45.939Z,102017.69
2022-10-09T14:14:07.640Z,102003.56
2022-10-09T14:24:29.201Z,101990.94
2022-10-09T14:34:50.636Z,101987.78
2022-10-09T14:45:12.151Z,101964.84
2022-10-09T14:55:34.485Z,101952.44
2022-10-09T15:06:00.191Z,101935.81
2022-10-09T15:16:22.723Z,101921.94
2022-10-09T15:26:44.194Z,101910.41
2022-10-09T15:37:05.955Z,101894.00
2022-10-09T15:47:49.838Z,101885.88
2022-10-09T15:58:09.240Z,101879.22
2022-10-09T16:08:31.468Z,101864.78
2022-10-09T16:18:54.378Z,101855.66
2022-10-09T16:29:15.892Z,101857.56
2022-10-09T16:39:37.367Z,101834.88
2022-10-09T16:49:58.806Z,101848.75
2022-10-09T17:00:20.337Z,101844.25
2022-10-09T17:10:42.057Z,101841.25
2022-10-09T17:21:09.380Z,101836.56
2022-10-09T17:31:31.160Z,101820.41
2022-10-09T17:41:52.574Z,101827.72
2022-10-09T17:52:14.125Z,101819.16
2022-10-09T18:02:35.646Z,101798.56
2022-10-09T18:12:57.098Z,101795.56
2022-10-09T18:23:22.511Z,101793.56
2022-10-09T18:33:44.845Z,101787.31
2022-10-09T18:44:12.501Z,101794.59
2022-10-09T18:54:34.092Z,101780.44
2022-10-09T19:04:55.677Z,101768.44
2022-10-09T19:15:17.187Z,101766.25
2022-10-09T19:25:45.647Z,101755.88
2022-10-09T19:36:07.798Z,101741.66
2022-10-09T19:46:29.298Z,101736.91
2022-10-09T19:56:51.597Z,101730.97
2022-10-09T20:07:13.066Z,101709.22
2022-10-09T20:17:34.550Z,101702.06
2022-10-09T20:27:56.096Z,101689.25
2022-10-09T20:38:24.826Z,101688.97
2022-10-09T20:48:48.283Z,101674.84
2022-10-09T20:59:09.867Z,101679.53
2022-10-09T21:09:33.419Z,101664.63
2022-10-09T21:19:56.491Z,101655.06
2022-10-09T21:30:18.032Z,101637.53
2022-10-09T21:40:40.420Z,101626.19
2022-10-09T21:51:01.889Z,101619.78
2022-10-09T22:01:23.354Z,101615.63
2022-10-09T22:11:45.035Z,101603.22
2022-10-09T22:22:07.131Z,101590.34
2022-10-09T22:32:28.580Z,101573.56
2022-10-09T22:42:50.193Z,101552.16
2022-10-09T22:53:11.829Z,101539.00
2022-10-09T23:03:33.289Z,101528.03
2022-10-09T23:13:57.274Z,101506.38
2022-10-09T23:24:18.761Z,101496.28
2022-10-09T23:34:40.233Z,101491.97
2022-10-09T23:45:01.705Z,101486.78
2022-10-09T23:55:23.194Z,101485.09
